createdAt,value
2023-08-17T00:00:13.479Z,12.05
2023-08-17T00:02:40.697Z,13.07
2023-08-17T00:05:07.895Z,10.10
2023-08-17T00:07:35.194Z,14.57
2023-08-17T00:10:02.528Z,8.57
2023-08-17T00:12:29.904Z,16.90
2023-08-17T00:14:57.140Z,8.60
2023-08-17T00:17:24.763Z,10.98
2023-08-17T00:19:52.316Z,9.45
2023-08-17T00:22:19.629Z,15.38
2023-08-17T00:24:46.913Z,11.43
2023-08-17T00:27:14.264Z,14.88
2023-08-17T00:29:41.528Z,13.50
2023-08-17T00:32:09.051Z,15.73
2023-08-17T00:34:37.062Z,17.63
2023-08-17T00:37:04.400Z,16.08
2023-08-17T00:39:31.758Z,19.77
2023-08-17T00:41:59.069Z,20.85
2023-08-17T00:44:26.370Z,19.70
2023-08-17T00:46:53.746Z,19.23
2023-08-17T00:49:20.973Z,16.00
2023-08-17T00:51:48.337Z,19.17
2023-08-17T00:54:15.696Z,19.65
2023-08-17T00:56:43.515Z,19.73
2023-08-17T00:59:10.795Z,22.65
2023-08-17T01:01:39.142Z,17.58
2023-08-17T01:04:10.015Z,17.60
2023-08-17T01:06:38.886Z,23.65
2023-08-17T01:09:07.556Z,22.38
2023-08-17T01:11:34.860Z,27.38
2023-08-17T01:14:02.145Z,28.52
2023-08-17T01:16:29.568Z,29.73
2023-08-17T01:18:56.906Z,28.13
2023-08-17T01:21:25.628Z,32.08
2023-08-17T01:23:52.928Z,22.40
2023-08-17T01:26:20.208Z,21.02
2023-08-17T01:28:47.605Z,20.15
2023-08-17T01:31:14.913Z,24.95
2023-08-17T01:33:42.292Z,20.80
2023-08-17T01:36:09.632Z,21.77
2023-08-17T01:38:37.071Z,19.23
2023-08-17T01:41:04.325Z,16.77
2023-08-17T01:43:31.612Z,14.63
2023-08-17T01:45:59.808Z,15.25
2023-08-17T01:48:27.376Z,16.45
2023-08-17T01:50:54.720Z,15.65
2023-08-17T01:53:22.099Z,19.20
2023-08-17T01:55:52.808Z,17.42
2023-08-17T01:58:21.597Z,21.00
2023-08-17T02:00:49.671Z,20.50
2023-08-17T02:03:17.089Z,21.50
2023-08-17T02:05:44.401Z,12.70
2023-08-17T02:08:13.909Z,21.88
2023-08-17T02:10:41.184Z,15.65
2023-08-17T02:13:18.300Z,17.38
2023-08-17T02:15:46.034Z,18.77
2023-08-17T02:18:13.622Z,16.55
2023-08-17T02:20:41.290Z,14.32
2023-08-17T02:23:08.553Z,15.90
2023-08-17T02:25:36.941Z,17.20
2023-08-17T02:28:04.832Z,17.02
2023-08-17T02:30:32.197Z,19.65
2023-08-17T02:32:59.778Z,16.58
2023-08-17T02:35:27.139Z,18.33
2023-08-17T02:37:54.354Z,15.95
2023-08-17T02:40:21.826Z,18.10
2023-08-17T02:42:49.275Z,14.18
2023-08-17T02:45:16.647Z,15.75
2023-08-17T02:47:43.995Z,19.20
2023-08-17T02:50:11.361Z,13.30
2023-08-17T02:52:38.710Z,18.27
2023-08-17T02:55:06.062Z,17.42
2023-08-17T02:57:33.683Z,23.67
2023-08-17T03:00:00.938Z,17.98
2023-08-17T03:02:30.539Z,18.83
2023-08-17T03:04:57.964Z,21.40
2023-08-17T03:07:25.375Z,24.92
2023-08-17T03:09:52.778Z,26.63
2023-08-17T03:12:20.036Z,21.58
2023-08-17T03:14:47.435Z,21.02
2023-08-17T03:17:14.680Z,19.08
2023-08-17T03:19:42.142Z,16.83
2023-08-17T03:22:09.392Z,16.73
2023-08-17T03:24:36.749Z,19.80
2023-08-17T03:27:04.019Z,16.48
2023-08-17T03:29:31.404Z,15.82
2023-08-17T03:32:01.057Z,14.38
2023-08-17T03:34:28.357Z,14.32
2023-08-17T03:36:55.573Z,23.67
2023-08-17T03:39:23.300Z,17.45
2023-08-17T03:41:50.600Z,17.98
2023-08-17T03:44:17.900Z,22.73
2023-08-17T03:46:45.215Z,22.55
2023-08-17T03:49:12.662Z,15.82
2023-08-17T03:51:39.878Z,18.45
2023-08-17T03:54:07.267Z,18.38
2023-08-17T03:56:34.551Z,21.42
2023-08-17T03:59:01.883Z,26.45
2023-08-17T04:01:29.206Z,19.85
2023-08-17T04:03:56.690Z,23.33
2023-08-17T04:06:24.114Z,29.55
2023-08-17T04:08:51.378Z,29.50
2023-08-17T04:11:18.585Z,37.30
2023-08-17T04:13:45.963Z,24.40
2023-08-17T04:16:13.283Z,20.55
2023-08-17T04:18:41.115Z,21.83
2023-08-17T04:21:08.334Z,19.95
2023-08-17T04:23:35.649Z,17.08
2023-08-17T04:26:02.860Z,17.52
2023-08-17T04:28:30.377Z,21.88
2023-08-17T04:30:57.673Z,14.23
2023-08-17T04:33:24.963Z,18.08
2023-08-17T04:35:52.269Z,22.67
2023-08-17T04:38:19.546Z,21.45
2023-08-17T04:40:47.396Z,16.42
2023-08-17T04:43:15.261Z,19.45
2023-08-17T04:45:42.622Z,18.75
2023-08-17T04:48:10.107Z,13.45
2023-08-17T04:50:38.149Z,20.88
2023-08-17T04:53:06.116Z,24.58
2023-08-17T04:55:33.909Z,19.40
2023-08-17T04:58:01.697Z,18.67
2023-08-17T05:00:29.721Z,19.60
2023-08-17T05:02:57.692Z,16.40
2023-08-17T05:05:28.092Z,17.50
2023-08-17T05:07:57.049Z,31.08
2023-08-17T05:10:24.513Z,22.48
2023-08-17T05:12:52.956Z,15.48
2023-08-17T05:15:21.047Z,16.65
2023-08-17T05:17:48.773Z,18.25
2023-08-17T05:20:18.133Z,21.10
2023-08-17T05:22:45.424Z,20.98
2023-08-17T05:25:12.675Z,19.77
2023-08-17T05:27:41.236Z,15.55
2023-08-17T05:30:08.920Z,14.18
2023-08-17T05:32:36.177Z,23.65
2023-08-17T05:35:03.654Z,14.20
2023-08-17T05:37:30.926Z,19.45
2023-08-17T05:39:58.884Z,17.85
2023-08-17T05:42:26.604Z,21.83
2023-08-17T05:44:53.818Z,18.35
2023-08-17T05:47:23.352Z,18.92
2023-08-17T05:49:50.821Z,22.08
2023-08-17T05:52:18.156Z,20.42
2023-08-17T05:54:45.492Z,21.85
2023-08-17T05:57:12.848Z,18.25
2023-08-17T05:59:40.153Z,16.70
2023-08-17T06:02:08.136Z,22.35
2023-08-17T06:04:35.352Z,25.55
2023-08-17T06:07:02.682Z,19.83
2023-08-17T06:09:30.078Z,19.98
2023-08-17T06:11:57.450Z,16.33
2023-08-17T06:14:24.742Z,20.98
2023-08-17T06:16:52.102Z,20.92
2023-08-17T06:19:19.457Z,14.27
2023-08-17T06:21:46.726Z,25.40
2023-08-17T06:24:14.318Z,30.27
2023-08-17T06:26:41.906Z,20.95
2023-08-17T06:29:09.233Z,16.33
2023-08-17T06:31:36.554Z,19.92
2023-08-17T06:34:04.142Z,24.85
2023-08-17T06:36:31.649Z,22.92
2023-08-17T06:38:58.958Z,18.75
2023-08-17T06:41:26.515Z,19.17
2023-08-17T06:43:53.770Z,21.90
2023-08-17T06:46:21.186Z,18.42
2023-08-17T06:48:48.474Z,21.08
2023-08-17T06:51:15.795Z,21.80
2023-08-17T06:53:43.117Z,20.00
2023-08-17T06:56:10.384Z,17.00
2023-08-17T06:58:37.878Z,21.33
2023-08-17T07:01:05.252Z,20.95
2023-08-17T07:03:32.653Z,20.17
2023-08-17T07:06:00.374Z,13.77
2023-08-17T07:08:27.700Z,20.52
2023-08-17T07:10:54.992Z,14.80
2023-08-17T07:13:22.477Z,19.50
2023-08-17T07:15:49.767Z,17.98
2023-08-17T07:18:17.180Z,15.68
2023-08-17T07:20:44.507Z,14.60
2023-08-17T07:23:11.914Z,15.23
2023-08-17T07:25:39.692Z,11.68
2023-08-17T07:28:07.076Z,15.07
2023-08-17T07:30:34.294Z,17.70
2023-08-17T07:33:01.811Z,12.10
2023-08-17T07:35:29.191Z,29.63
2023-08-17T07:38:08.347Z,23.63
2023-08-17T07:40:37.441Z,14.13
2023-08-17T07:43:04.731Z,16.50
2023-08-17T07:45:32.100Z,12.30
2023-08-17T07:47:59.501Z,16.45
2023-08-17T07:50:26.799Z,15.35
2023-08-17T07:52:54.049Z,18.33
2023-08-17T07:55:21.391Z,11.45
2023-08-17T07:57:48.658Z,23.23
2023-08-17T08:00:15.987Z,12.75
2023-08-17T08:02:43.490Z,12.52
2023-08-17T08:05:11.297Z,13.65
2023-08-17T08:07:38.687Z,11.73
2023-08-17T08:10:05.990Z,9.90
2023-08-17T08:12:33.291Z,14.05
2023-08-17T08:15:00.644Z,15.45
2023-08-17T08:17:28.240Z,21.67
2023-08-17T08:19:55.949Z,8.85
2023-08-17T08:22:23.216Z,13.60
2023-08-17T08:24:51.008Z,13.27
2023-08-17T08:27:18.767Z,11.98
2023-08-17T08:29:46.117Z,14.10
2023-08-17T08:32:13.408Z,12.35
2023-08-17T08:34:40.946Z,16.42
2023-08-17T08:37:08.271Z,14.52
2023-08-17T08:39:35.721Z,19.33
2023-08-17T08:42:03.056Z,12.25
2023-08-17T08:44:30.306Z,14.73
2023-08-17T08:46:57.691Z,12.68
2023-08-17T08:49:25.464Z,16.73
2023-08-17T08:51:53.805Z,9.23
2023-08-17T08:54:21.268Z,13.10
2023-08-17T08:56:48.602Z,11.65
2023-08-17T08:59:15.887Z,13.77
2023-08-17T09:01:43.313Z,20.65
2023-08-17T09:04:10.694Z,13.50
2023-08-17T09:06:37.943Z,19.63
2023-08-17T09:09:05.317Z,13.60
2023-08-17T09:11:32.588Z,15.52
2023-08-17T09:14:00.072Z,16.63
2023-08-17T09:16:27.380Z,16.77
2023-08-17T09:18:55.260Z,8.50
2023-08-17T09:21:23.323Z,13.07
2023-08-17T09:23:50.700Z,22.10
2023-08-17T09:26:19.006Z,14.55
2023-08-17T09:28:46.374Z,13.77
2023-08-17T09:31:13.808Z,9.52
2023-08-17T09:33:45.380Z,16.08
2023-08-17T09:36:14.284Z,13.10
2023-08-17T09:38:41.586Z,13.40
2023-08-17T09:41:09.081Z,11.13
2023-08-17T09:43:36.384Z,9.85
2023-08-17T09:46:04.377Z,14.38
2023-08-17T09:48:33.585Z,10.18
2023-08-17T09:51:02.816Z,15.10
2023-08-17T09:53:30.152Z,9.73
2023-08-17T09:55:57.421Z,8.13
2023-08-17T09:58:31.192Z,19.33
2023-08-17T10:03:26.483Z,12.13
2023-08-17T10:05:55.793Z,14.50
2023-08-17T10:08:23.298Z,12.30
2023-08-17T10:13:23.325Z,9.88
2023-08-17T10:15:50.633Z,10.77
2023-08-17T10:18:17.946Z,14.38
2023-08-17T10:20:45.207Z,9.60
2023-08-17T10:23:15.818Z,13.02
2023-08-17T10:25:43.113Z,11.90
2023-08-17T10:28:10.302Z,10.95
2023-08-17T10:30:37.678Z,11.88
2023-08-17T10:33:05.247Z,6.90
2023-08-17T10:35:32.711Z,7.93
2023-08-17T10:37:59.990Z,10.77
2023-08-17T10:40:27.994Z,8.05
2023-08-17T10:42:55.268Z,8.90
2023-08-17T10:45:22.662Z,11.82
2023-08-17T10:47:50.005Z,11.30
2023-08-17T10:50:17.389Z,12.93
2023-08-17T10:55:16.140Z,11.07
2023-08-17T10:57:43.368Z,7.53
2023-08-17T11:02:47.842Z,12.30
2023-08-17T11:05:15.270Z,7.22
2023-08-17T11:07:42.669Z,11.68
2023-08-17T11:10:10.132Z,9.98
2023-08-17T11:12:37.490Z,12.27
2023-08-17T11:15:04.784Z,9.88
2023-08-17T11:17:32.119Z,6.30
2023-08-17T11:19:59.500Z,7.05
2023-08-17T11:22:26.901Z,12.18
2023-08-17T11:24:54.128Z,6.25
2023-08-17T11:27:21.547Z,6.65
2023-08-17T11:29:48.791Z,8.15
2023-08-17T11:32:16.089Z,8.55
2023-08-17T11:34:43.295Z,9.50
2023-08-17T11:37:10.610Z,9.10
2023-08-17T11:39:37.930Z,10.32
2023-08-17T11:42:05.341Z,4.78
2023-08-17T11:44:32.757Z,12.55
2023-08-17T11:47:00.090Z,9.75
2023-08-17T11:49:27.486Z,17.80
2023-08-17T11:51:54.758Z,18.88
2023-08-17T11:54:23.013Z,12.73
2023-08-17T11:56:50.320Z,9.77
2023-08-17T11:59:20.583Z,10.15
2023-08-17T12:01:47.844Z,7.05
2023-08-17T12:04:15.211Z,8.77
2023-08-17T12:06:42.524Z,6.90
2023-08-17T12:09:09.806Z,7.22
2023-08-17T12:11:37.133Z,6.25
2023-08-17T12:14:04.487Z,10.95
2023-08-17T12:16:31.754Z,6.55
2023-08-17T12:18:59.196Z,9.70
2023-08-17T12:21:26.613Z,8.43
2023-08-17T12:23:54.104Z,10.73
2023-08-17T12:26:21.460Z,10.38
2023-08-17T12:28:48.798Z,5.78
2023-08-17T12:31:16.192Z,9.80
2023-08-17T12:33:43.463Z,10.88
2023-08-17T12:36:10.933Z,10.25
2023-08-17T12:38:39.222Z,12.80
2023-08-17T12:41:07.529Z,9.95
2023-08-17T12:43:34.892Z,7.97
2023-08-17T12:46:02.244Z,6.68
2023-08-17T12:48:29.576Z,10.38
2023-08-17T12:50:57.708Z,7.95
2023-08-17T12:53:25.001Z,4.80
2023-08-17T12:55:56.267Z,9.30
2023-08-17T12:58:23.846Z,7.45
2023-08-17T13:00:51.644Z,14.02
2023-08-17T13:03:19.293Z,12.73
2023-08-17T13:05:46.594Z,5.47
2023-08-17T13:08:13.986Z,9.18
2023-08-17T13:10:41.321Z,6.65
2023-08-17T13:13:08.617Z,5.43
2023-08-17T13:15:35.961Z,10.63
2023-08-17T13:18:03.986Z,6.35
2023-08-17T13:20:31.308Z,8.05
2023-08-17T13:22:58.683Z,6.25
2023-08-17T13:25:25.927Z,9.63
2023-08-17T13:27:53.304Z,9.77
2023-08-17T13:30:20.602Z,3.17
2023-08-17T13:32:48.056Z,18.50
2023-08-17T13:35:15.418Z,9.18
2023-08-17T13:37:42.778Z,7.90
2023-08-17T13:40:13.174Z,6.93
2023-08-17T13:42:40.499Z,9.10
2023-08-17T13:45:07.761Z,7.43
2023-08-17T13:47:35.307Z,7.07
2023-08-17T13:50:04.440Z,12.48
2023-08-17T13:52:31.851Z,3.05
2023-08-17T13:54:59.279Z,8.05
2023-08-17T13:57:26.645Z,5.53
2023-08-17T13:59:54.089Z,10.32
2023-08-17T14:02:21.725Z,6.68
2023-08-17T14:04:49.061Z,7.10
2023-08-17T14:07:16.494Z,8.35
2023-08-17T14:09:54.277Z,11.05
2023-08-17T14:12:29.659Z,4.78
2023-08-17T14:14:56.954Z,5.30
2023-08-17T14:17:24.276Z,5.65
2023-08-17T14:19:51.627Z,6.07
2023-08-17T14:22:18.962Z,7.85
2023-08-17T14:24:46.202Z,5.50
2023-08-17T14:27:13.536Z,10.27
2023-08-17T14:29:40.933Z,9.30
2023-08-17T14:32:08.331Z,4.03
2023-08-17T14:34:35.654Z,5.00
2023-08-17T14:37:02.960Z,6.60
2023-08-17T14:39:30.219Z,9.48
2023-08-17T14:41:57.615Z,4.75
2023-08-17T14:44:24.928Z,7.15
2023-08-17T14:46:54.664Z,2.20
2023-08-17T14:49:26.845Z,13.88
2023-08-17T14:51:54.985Z,5.72
2023-08-17T14:54:22.267Z,4.03
2023-08-17T14:56:49.577Z,4.30
2023-08-17T14:59:16.847Z,4.80
2023-08-17T15:01:44.333Z,5.20
2023-08-17T15:04:11.981Z,8.82
2023-08-17T15:06:42.449Z,5.13
2023-08-17T15:09:10.398Z,9.05
2023-08-17T15:11:37.714Z,6.20
2023-08-17T15:14:05.052Z,9.75
2023-08-17T15:16:32.320Z,7.68
2023-08-17T15:18:59.740Z,2.28
2023-08-17T15:21:26.988Z,3.90
2023-08-17T15:23:54.243Z,3.47
2023-08-17T15:26:21.693Z,3.60
2023-08-17T15:28:49.134Z,6.55
2023-08-17T15:31:17.722Z,7.32
2023-08-17T15:33:45.281Z,5.75
2023-08-17T15:36:12.604Z,4.88
2023-08-17T15:38:39.956Z,5.88
2023-08-17T15:41:07.271Z,3.60
2023-08-17T15:43:34.541Z,9.02
2023-08-17T15:46:01.896Z,2.35
2023-08-17T15:48:29.278Z,6.45
2023-08-17T15:50:56.602Z,4.30
2023-08-17T15:53:24.006Z,4.85
2023-08-17T15:55:51.367Z,6.15
2023-08-17T15:58:18.636Z,5.43
2023-08-17T16:00:45.973Z,7.57
2023-08-17T16:03:13.735Z,7.57
2023-08-17T16:05:41.055Z,7.38
2023-08-17T16:08:08.625Z,16.90
2023-08-17T16:10:36.939Z,6.38
2023-08-17T16:13:04.321Z,6.22
2023-08-17T16:15:31.692Z,5.65
2023-08-17T16:18:01.992Z,5.68
2023-08-17T16:20:31.479Z,6.05
2023-08-17T16:22:58.984Z,6.55
2023-08-17T16:27:56.663Z,10.63
2023-08-17T16:30:23.946Z,9.30
2023-08-17T16:32:52.335Z,9.00
2023-08-17T16:35:19.737Z,5.90
2023-08-17T16:37:47.235Z,6.50
2023-08-17T16:40:27.800Z,6.22
2023-08-17T16:43:01.844Z,5.03
2023-08-17T16:45:30.060Z,4.78
2023-08-17T16:47:57.426Z,6.75
2023-08-17T16:50:24.793Z,5.07
2023-08-17T16:52:52.286Z,8.23
2023-08-17T16:55:19.601Z,6.18
2023-08-17T16:57:46.935Z,5.53
2023-08-17T17:00:14.258Z,8.68
2023-08-17T17:02:41.702Z,7.65
2023-08-17T17:05:09.067Z,15.38
2023-08-17T17:07:36.431Z,8.23
2023-08-17T17:10:03.773Z,5.15
2023-08-17T17:12:31.162Z,7.28
2023-08-17T17:14:58.424Z,8.50
2023-08-17T17:17:26.097Z,4.43
2023-08-17T17:19:53.774Z,6.68
2023-08-17T17:22:21.257Z,7.95
2023-08-17T17:24:48.588Z,10.43
2023-08-17T17:27:15.916Z,6.35
2023-08-17T17:29:43.187Z,7.13
2023-08-17T17:32:10.493Z,4.93
2023-08-17T17:34:37.711Z,7.72
2023-08-17T17:37:05.081Z,7.35
2023-08-17T17:39:32.385Z,5.43
2023-08-17T17:41:59.747Z,4.80
2023-08-17T17:44:27.043Z,12.55
2023-08-17T17:46:54.497Z,10.77
2023-08-17T17:49:22.163Z,9.02
2023-08-17T17:51:49.523Z,4.43
2023-08-17T17:54:16.797Z,9.00
2023-08-17T17:56:44.116Z,8.75
2023-08-17T17:59:11.834Z,5.28
2023-08-17T18:01:39.818Z,4.85
2023-08-17T18:04:07.708Z,8.20
2023-08-17T18:06:38.243Z,5.50
2023-08-17T18:09:08.647Z,5.47
2023-08-17T18:11:36.072Z,13.93
2023-08-17T18:14:03.685Z,6.97
2023-08-17T18:16:31.344Z,9.80
2023-08-17T18:18:58.590Z,9.18
2023-08-17T18:21:25.876Z,7.57
2023-08-17T18:23:53.098Z,13.52
2023-08-17T18:26:20.352Z,9.00
2023-08-17T18:28:47.627Z,11.20
2023-08-17T18:31:14.968Z,11.15
2023-08-17T18:33:42.244Z,9.90
2023-08-17T18:36:09.619Z,16.60
2023-08-17T18:38:37.288Z,8.27
2023-08-17T18:41:05.105Z,7.28
2023-08-17T18:43:32.319Z,5.55
2023-08-17T18:45:59.695Z,9.15
2023-08-17T18:48:27.004Z,7.65
2023-08-17T18:50:54.460Z,10.32
2023-08-17T18:53:21.665Z,5.32
2023-08-17T18:55:49.008Z,12.15
2023-08-17T18:58:25.653Z,8.68
2023-08-17T19:00:52.997Z,9.23
2023-08-17T19:03:20.485Z,9.70
2023-08-17T19:05:47.929Z,14.93
2023-08-17T19:08:15.181Z,10.75
2023-08-17T19:10:42.573Z,15.88
2023-08-17T19:13:09.920Z,13.70
2023-08-17T19:15:37.221Z,16.45
2023-08-17T19:18:04.496Z,15.93
2023-08-17T19:20:31.961Z,11.23
2023-08-17T19:22:59.312Z,20.38
2023-08-17T19:25:26.584Z,16.35
2023-08-17T19:27:53.836Z,7.05
2023-08-17T19:30:21.173Z,9.32
2023-08-17T19:32:48.517Z,11.10
2023-08-17T19:35:16.316Z,11.23
2023-08-17T19:37:43.665Z,13.95
2023-08-17T19:40:10.961Z,12.52
2023-08-17T19:42:38.238Z,15.35
2023-08-17T19:45:05.736Z,9.85
2023-08-17T19:47:33.070Z,15.82
2023-08-17T19:50:00.629Z,9.20
2023-08-17T19:52:27.937Z,15.25
2023-08-17T19:54:55.171Z,9.20
2023-08-17T19:57:22.409Z,9.68
2023-08-17T19:59:49.813Z,16.50
2023-08-17T20:02:17.079Z,13.45
2023-08-17T20:04:44.369Z,15.73
2023-08-17T20:07:11.691Z,17.67
2023-08-17T20:09:39.010Z,9.85
2023-08-17T20:12:06.683Z,16.73
2023-08-17T20:14:34.024Z,18.30
2023-08-17T20:17:01.306Z,14.20
2023-08-17T20:19:28.640Z,5.82
2023-08-17T20:21:55.905Z,14.18
2023-08-17T20:24:23.260Z,16.08
2023-08-17T20:26:50.556Z,13.95
2023-08-17T20:29:17.995Z,13.20
2023-08-17T20:31:45.309Z,14.25
2023-08-17T20:34:12.722Z,11.43
2023-08-17T20:36:40.364Z,14.98
2023-08-17T20:39:07.939Z,21.92
2023-08-17T20:41:35.162Z,21.23
2023-08-17T20:44:02.464Z,16.35
2023-08-17T20:46:30.046Z,12.82
2023-08-17T20:48:57.948Z,16.95
2023-08-17T20:51:25.341Z,18.02
2023-08-17T20:53:55.553Z,14.57
2023-08-17T20:56:22.821Z,26.52
2023-08-17T20:58:50.049Z,16.50
2023-08-17T21:01:17.589Z,12.93
2023-08-17T21:03:47.029Z,15.70
2023-08-17T21:06:14.694Z,14.10
2023-08-17T21:08:41.935Z,19.38
2023-08-17T21:11:09.326Z,18.77
2023-08-17T21:13:37.325Z,18.83
2023-08-17T21:16:04.701Z,17.67
2023-08-17T21:18:31.995Z,15.50
2023-08-17T21:20:59.804Z,18.45
2023-08-17T21:23:27.164Z,22.42
2023-08-17T21:25:54.704Z,14.30
2023-08-17T21:28:22.002Z,15.75
2023-08-17T21:30:50.272Z,20.80
2023-08-17T21:33:17.528Z,15.85
2023-08-17T21:35:45.260Z,16.92
2023-08-17T21:38:12.504Z,17.13
2023-08-17T21:40:39.886Z,24.38
2023-08-17T21:43:07.253Z,12.75
2023-08-17T21:45:34.734Z,20.10
2023-08-17T21:48:02.045Z,18.45
2023-08-17T21:50:29.395Z,16.17
2023-08-17T21:52:57.854Z,19.55
2023-08-17T21:55:25.412Z,15.82
2023-08-17T21:57:52.734Z,25.60
2023-08-17T22:00:20.072Z,21.73
2023-08-17T22:02:47.419Z,23.48
2023-08-17T22:05:17.791Z,15.85
2023-08-17T22:07:45.085Z,20.73
2023-08-17T22:10:13.307Z,18.33
2023-08-17T22:12:42.011Z,15.10
2023-08-17T22:15:09.243Z,17.33
2023-08-17T22:17:36.559Z,13.52
2023-08-17T22:20:04.925Z,13.93
2023-08-17T22:22:32.292Z,15.32
2023-08-17T22:24:59.554Z,17.45
2023-08-17T22:27:27.193Z,14.63
2023-08-17T22:29:54.604Z,16.20
2023-08-17T22:32:21.927Z,16.77
2023-08-17T22:34:49.342Z,19.13
2023-08-17T22:37:16.749Z,18.80
2023-08-17T22:39:44.030Z,25.73
2023-08-17T22:42:11.326Z,18.83
2023-08-17T22:44:38.587Z,17.35
2023-08-17T22:47:06.528Z,23.63
2023-08-17T22:49:33.834Z,23.25
2023-08-17T22:52:01.746Z,19.15
2023-08-17T22:54:29.054Z,24.15
2023-08-17T22:56:56.479Z,21.98
2023-08-17T22:59:23.740Z,13.88
2023-08-17T23:01:51.565Z,22.85
2023-08-17T23:04:18.835Z,19.75
2023-08-17T23:06:46.149Z,20.02
2023-08-17T23:09:13.378Z,21.63
2023-08-17T23:11:40.765Z,20.75
2023-08-17T23:14:08.014Z,16.52
2023-08-17T23:16:35.460Z,28.98
2023-08-17T23:19:02.780Z,23.42
2023-08-17T23:21:30.186Z,13.35
2023-08-17T23:23:57.495Z,18.17
2023-08-17T23:26:25.278Z,25.92
2023-08-17T23:28:52.485Z,26.98
2023-08-17T23:31:19.786Z,24.08
2023-08-17T23:33:47.055Z,19.17
2023-08-17T23:36:14.372Z,19.42
2023-08-17T23:38:41.647Z,24.20
2023-08-17T23:41:08.973Z,27.85
2023-08-17T23:43:36.259Z,29.00
2023-08-17T23:46:03.623Z,22.70
2023-08-17T23:48:30.949Z,22.38
2023-08-17T23:50:58.200Z,19.73
2023-08-17T23:53:25.449Z,16.88
2023-08-17T23:55:52.886Z,20.20
2023-08-17T23:58:20.153Z,25.33
